sensor_id;sensor_type;location;lat;lon;timestamp;temperature;humidity
2639;DHT22;1329;51.384;7.122;2024-02-14T00:01:21;10.20;99.90
2639;DHT22;1329;51.384;7.122;2024-02-14T00:03:49;10.20;99.90
2639;DHT22;1329;51.384;7.122;2024-02-14T00:06:18;10.20;99.90
2639;DHT22;1329;51.384;7.122;2024-02-14T00:08:49;10.20;99.90
2639;DHT22;1329;51.384;7.122;2024-02-14T00:11:40;10.20;99.90
2639;DHT22;1329;51.384;7.122;2024-02-14T00:14:41;10.20;99.90
2639;DHT22;1329;51.384;7.122;2024-02-14T00:17:08;10.20;99.90
2639;DHT22;1329;51.384;7.122;2024-02-14T00:19:36;10.20;99.90
2639;DHT22;1329;51.384;7.122;2024-02-14T00:22:34;10.20;99.90
2639;DHT22;1329;51.384;7.122;2024-02-14T00:25:01;10.20;99.90
2639;DHT22;1329;51.384;7.122;2024-02-14T00:27:28;10.20;99.90
2639;DHT22;1329;51.384;7.122;2024-02-14T00:29:56;10.20;99.90
2639;DHT22;1329;51.384;7.122;2024-02-14T00:32:23;10.20;99.90
2639;DHT22;1329;51.384;7.122;2024-02-14T00:34:50;10.20;99.90
2639;DHT22;1329;51.384;7.122;2024-02-14T00:40:45;10.10;99.90
2639;DHT22;1329;51.384;7.122;2024-02-14T00:43:12;10.00;99.90
2639;DHT22;1329;51.384;7.122;2024-02-14T00:45:39;10.00;99.90
2639;DHT22;1329;51.384;7.122;2024-02-14T00:48:07;10.00;99.90
2639;DHT22;1329;51.384;7.122;2024-02-14T00:50:34;9.90;99.90
2639;DHT22;1329;51.384;7.122;2024-02-14T00:53:13;9.90;99.90
2639;DHT22;1329;51.384;7.122;2024-02-14T00:56:11;9.90;99.90
2639;DHT22;1329;51.384;7.122;2024-02-14T00:58:38;9.80;99.90
2639;DHT22;1329;51.384;7.122;2024-02-14T01:01:06;9.80;99.90
2639;DHT22;1329;51.384;7.122;2024-02-14T01:03:32;9.70;99.90
2639;DHT22;1329;51.384;7.122;2024-02-14T01:06:09;9.70;99.90
2639;DHT22;1329;51.384;7.122;2024-02-14T01:08:37;9.70;99.90
2639;DHT22;1329;51.384;7.122;2024-02-14T01:11:04;9.70;99.90
2639;DHT22;1329;51.384;7.122;2024-02-14T01:13:31;9.60;99.90
2639;DHT22;1329;51.384;7.122;2024-02-14T01:16:25;9.60;99.90
2639;DHT22;1329;51.384;7.122;2024-02-14T01:19:12;9.60;99.90
2639;DHT22;1329;51.384;7.122;2024-02-14T01:21:39;9.60;99.90
2639;DHT22;1329;51.384;7.122;2024-02-14T01:24:15;9.60;99.90
2639;DHT22;1329;51.384;7.122;2024-02-14T01:26:42;9.50;99.90
2639;DHT22;1329;51.384;7.122;2024-02-14T01:29:15;9.50;99.90
2639;DHT22;1329;51.384;7.122;2024-02-14T01:31:53;9.50;99.90
2639;DHT22;1329;51.384;7.122;2024-02-14T01:34:24;9.50;99.90
2639;DHT22;1329;51.384;7.122;2024-02-14T01:36:51;9.50;99.90
2639;DHT22;1329;51.384;7.122;2024-02-14T01:39:19;9.50;99.90
2639;DHT22;1329;51.384;7.122;2024-02-14T01:41:48;9.50;99.90
2639;DHT22;1329;51.384;7.122;2024-02-14T01:44:16;9.50;99.90
2639;DHT22;1329;51.384;7.122;2024-02-14T01:46:46;9.50;99.90
2639;DHT22;1329;51.384;7.122;2024-02-14T01:49:16;9.50;99.90
2639;DHT22;1329;51.384;7.122;2024-02-14T01:51:44;9.50;99.90
2639;DHT22;1329;51.384;7.122;2024-02-14T01:54:12;9.50;99.90
2639;DHT22;1329;51.384;7.122;2024-02-14T01:56:45;9.50;99.90
2639;DHT22;1329;51.384;7.122;2024-02-14T01:59:13;9.50;99.90
2639;DHT22;1329;51.384;7.122;2024-02-14T02:01:43;9.50;99.90
2639;DHT22;1329;51.384;7.122;2024-02-14T02:04:11;9.50;99.90
2639;DHT22;1329;51.384;7.122;2024-02-14T02:06:41;9.50;99.90
2639;DHT22;1329;51.384;7.122;2024-02-14T02:09:08;9.60;99.90
2639;DHT22;1329;51.384;7.122;2024-02-14T02:11:48;9.60;99.90
2639;DHT22;1329;51.384;7.122;2024-02-14T02:14:17;9.60;99.90
2639;DHT22;1329;51.384;7.122;2024-02-14T02:16:45;9.60;99.90
2639;DHT22;1329;51.384;7.122;2024-02-14T02:19:13;9.60;99.90
2639;DHT22;1329;51.384;7.122;2024-02-14T02:21:42;9.60;99.90
2639;DHT22;1329;51.384;7.122;2024-02-14T02:24:14;9.60;99.90
2639;DHT22;1329;51.384;7.122;2024-02-14T02:26:44;9.70;99.90
2639;DHT22;1329;51.384;7.122;2024-02-14T02:29:12;9.70;99.90
2639;DHT22;1329;51.384;7.122;2024-02-14T02:31:42;9.70;99.90
2639;DHT22;1329;51.384;7.122;2024-02-14T02:34:10;9.70;99.90
2639;DHT22;1329;51.384;7.122;2024-02-14T02:36:38;9.70;99.90
2639;DHT22;1329;51.384;7.122;2024-02-14T02:39:06;9.70;99.90
2639;DHT22;1329;51.384;7.122;2024-02-14T02:41:35;9.70;99.90
2639;DHT22;1329;51.384;7.122;2024-02-14T02:44:02;9.80;99.90
2639;DHT22;1329;51.384;7.122;2024-02-14T02:46:32;9.80;99.90
2639;DHT22;1329;51.384;7.122;2024-02-14T02:48:59;9.80;99.90
2639;DHT22;1329;51.384;7.122;2024-02-14T02:51:27;9.80;99.90
2639;DHT22;1329;51.384;7.122;2024-02-14T02:53:55;9.80;99.90
2639;DHT22;1329;51.384;7.122;2024-02-14T02:56:23;9.90;99.90
2639;DHT22;1329;51.384;7.122;2024-02-14T02:58:56;9.90;99.90
2639;DHT22;1329;51.384;7.122;2024-02-14T03:01:23;9.90;99.90
2639;DHT22;1329;51.384;7.122;2024-02-14T03:03:56;9.90;99.90
2639;DHT22;1329;51.384;7.122;2024-02-14T03:06:24;9.90;99.90
2639;DHT22;1329;51.384;7.122;2024-02-14T03:08:52;9.90;99.90
2639;DHT22;1329;51.384;7.122;2024-02-14T03:11:22;10.00;99.90
2639;DHT22;1329;51.384;7.122;2024-02-14T03:13:50;10.00;99.90
2639;DHT22;1329;51.384;7.122;2024-02-14T03:16:22;10.00;99.90
2639;DHT22;1329;51.384;7.122;2024-02-14T03:18:49;10.00;99.90
2639;DHT22;1329;51.384;7.122;2024-02-14T03:21:17;10.00;99.90
2639;DHT22;1329;51.384;7.122;2024-02-14T03:23:44;10.10;99.90
2639;DHT22;1329;51.384;7.122;2024-02-14T03:26:11;10.10;99.90
2639;DHT22;1329;51.384;7.122;2024-02-14T03:28:38;10.10;99.90
2639;DHT22;1329;51.384;7.122;2024-02-14T03:31:06;10.10;99.90
2639;DHT22;1329;51.384;7.122;2024-02-14T03:33:34;10.10;99.90
2639;DHT22;1329;51.384;7.122;2024-02-14T03:36:01;10.10;99.90
2639;DHT22;1329;51.384;7.122;2024-02-14T03:38:28;10.10;99.90
2639;DHT22;1329;51.384;7.122;2024-02-14T03:40:56;10.10;99.90
2639;DHT22;1329;51.384;7.122;2024-02-14T03:43:23;10.10;99.90
2639;DHT22;1329;51.384;7.122;2024-02-14T03:45:51;10.10;99.90
2639;DHT22;1329;51.384;7.122;2024-02-14T03:48:18;10.10;99.90
2639;DHT22;1329;51.384;7.122;2024-02-14T03:50:47;10.10;99.90
2639;DHT22;1329;51.384;7.122;2024-02-14T03:53:14;10.10;99.90
2639;DHT22;1329;51.384;7.122;2024-02-14T03:55:41;10.10;99.90
2639;DHT22;1329;51.384;7.122;2024-02-14T03:58:08;10.10;99.90
2639;DHT22;1329;51.384;7.122;2024-02-14T04:00:35;10.10;99.90
2639;DHT22;1329;51.384;7.122;2024-02-14T04:03:03;10.10;99.90
2639;DHT22;1329;51.384;7.122;2024-02-14T04:05:30;10.10;99.90
2639;DHT22;1329;51.384;7.122;2024-02-14T04:07:58;10.00;99.90
2639;DHT22;1329;51.384;7.122;2024-02-14T04:10:26;10.00;99.90
2639;DHT22;1329;51.384;7.122;2024-02-14T04:12:53;10.10;99.90
2639;DHT22;1329;51.384;7.122;2024-02-14T04:15:21;10.00;99.90
2639;DHT22;1329;51.384;7.122;2024-02-14T04:17:49;10.00;99.90
2639;DHT22;1329;51.384;7.122;2024-02-14T04:20:16;10.00;99.90
2639;DHT22;1329;51.384;7.122;2024-02-14T04:22:44;10.10;99.90
2639;DHT22;1329;51.384;7.122;2024-02-14T04:25:13;10.10;99.90
2639;DHT22;1329;51.384;7.122;2024-02-14T04:27:41;10.10;99.90
2639;DHT22;1329;51.384;7.122;2024-02-14T04:30:09;10.10;99.90
2639;DHT22;1329;51.384;7.122;2024-02-14T04:32:37;10.10;99.90
2639;DHT22;1329;51.384;7.122;2024-02-14T04:35:05;10.10;99.90
2639;DHT22;1329;51.384;7.122;2024-02-14T04:37:34;10.10;99.90
2639;DHT22;1329;51.384;7.122;2024-02-14T04:40:02;10.20;99.90
2639;DHT22;1329;51.384;7.122;2024-02-14T04:42:32;10.20;99.90
2639;DHT22;1329;51.384;7.122;2024-02-14T04:45:00;10.20;99.90
2639;DHT22;1329;51.384;7.122;2024-02-14T04:47:28;10.20;99.90
2639;DHT22;1329;51.384;7.122;2024-02-14T04:49:55;10.20;99.90
2639;DHT22;1329;51.384;7.122;2024-02-14T04:52:23;10.30;99.90
2639;DHT22;1329;51.384;7.122;2024-02-14T04:54:51;10.30;99.90
2639;DHT22;1329;51.384;7.122;2024-02-14T04:57:19;10.30;99.90
2639;DHT22;1329;51.384;7.122;2024-02-14T04:59:51;10.30;99.90
2639;DHT22;1329;51.384;7.122;2024-02-14T05:02:18;10.30;99.90
2639;DHT22;1329;51.384;7.122;2024-02-14T05:04:47;10.30;99.90
2639;DHT22;1329;51.384;7.122;2024-02-14T05:07:14;10.30;99.90
2639;DHT22;1329;51.384;7.122;2024-02-14T05:09:42;10.40;99.90
2639;DHT22;1329;51.384;7.122;2024-02-14T05:12:10;10.40;99.90
2639;DHT22;1329;51.384;7.122;2024-02-14T05:14:38;10.40;99.90
2639;DHT22;1329;51.384;7.122;2024-02-14T05:17:08;10.40;99.90
2639;DHT22;1329;51.384;7.122;2024-02-14T05:19:35;10.40;99.90
2639;DHT22;1329;51.384;7.122;2024-02-14T05:22:03;10.50;99.90
2639;DHT22;1329;51.384;7.122;2024-02-14T05:24:31;10.50;99.90
2639;DHT22;1329;51.384;7.122;2024-02-14T05:26:58;10.50;99.90
2639;DHT22;1329;51.384;7.122;2024-02-14T05:29:26;10.50;99.90
2639;DHT22;1329;51.384;7.122;2024-02-14T05:31:53;10.50;99.90
2639;DHT22;1329;51.384;7.122;2024-02-14T05:34:23;10.50;99.90
2639;DHT22;1329;51.384;7.122;2024-02-14T05:36:51;10.60;99.90
2639;DHT22;1329;51.384;7.122;2024-02-14T05:39:18;10.60;99.90
2639;DHT22;1329;51.384;7.122;2024-02-14T05:41:46;10.60;99.90
2639;DHT22;1329;51.384;7.122;2024-02-14T05:44:14;10.60;99.90
2639;DHT22;1329;51.384;7.122;2024-02-14T05:46:42;10.60;99.90
2639;DHT22;1329;51.384;7.122;2024-02-14T05:49:16;10.60;99.90
2639;DHT22;1329;51.384;7.122;2024-02-14T05:51:45;10.60;99.90
2639;DHT22;1329;51.384;7.122;2024-02-14T05:54:13;10.60;99.90
2639;DHT22;1329;51.384;7.122;2024-02-14T05:56:40;10.60;99.90
2639;DHT22;1329;51.384;7.122;2024-02-14T05:59:09;10.60;99.90
2639;DHT22;1329;51.384;7.122;2024-02-14T06:01:37;10.60;99.90
2639;DHT22;1329;51.384;7.122;2024-02-14T06:04:04;10.60;99.90
2639;DHT22;1329;51.384;7.122;2024-02-14T06:06:32;10.60;99.90
2639;DHT22;1329;51.384;7.122;2024-02-14T06:09:01;10.60;99.90
2639;DHT22;1329;51.384;7.122;2024-02-14T06:11:35;10.60;99.90
2639;DHT22;1329;51.384;7.122;2024-02-14T06:14:04;10.60;99.90
2639;DHT22;1329;51.384;7.122;2024-02-14T06:16:32;10.60;99.90
2639;DHT22;1329;51.384;7.122;2024-02-14T06:19:00;10.60;99.90
2639;DHT22;1329;51.384;7.122;2024-02-14T06:21:30;10.60;99.90
2639;DHT22;1329;51.384;7.122;2024-02-14T06:23:58;10.60;99.90
2639;DHT22;1329;51.384;7.122;2024-02-14T06:26:30;10.70;99.90
2639;DHT22;1329;51.384;7.122;2024-02-14T06:28:58;10.70;99.90
2639;DHT22;1329;51.384;7.122;2024-02-14T06:31:26;10.70;99.90
2639;DHT22;1329;51.384;7.122;2024-02-14T06:33:54;10.70;99.90
2639;DHT22;1329;51.384;7.122;2024-02-14T06:36:22;10.70;99.90
2639;DHT22;1329;51.384;7.122;2024-02-14T06:38:49;10.70;99.90
2639;DHT22;1329;51.384;7.122;2024-02-14T06:41:18;10.70;99.90
2639;DHT22;1329;51.384;7.122;2024-02-14T06:43:46;10.80;99.90
2639;DHT22;1329;51.384;7.122;2024-02-14T06:46:14;10.80;99.90
2639;DHT22;1329;51.384;7.122;2024-02-14T06:48:41;10.80;99.90
2639;DHT22;1329;51.384;7.122;2024-02-14T06:51:08;10.80;99.90
2639;DHT22;1329;51.384;7.122;2024-02-14T06:53:36;10.80;99.90
2639;DHT22;1329;51.384;7.122;2024-02-14T06:56:04;10.80;99.90
2639;DHT22;1329;51.384;7.122;2024-02-14T06:58:34;10.80;99.90
2639;DHT22;1329;51.384;7.122;2024-02-14T07:01:01;10.80;99.90
2639;DHT22;1329;51.384;7.122;2024-02-14T07:03:29;10.80;99.90
2639;DHT22;1329;51.384;7.122;2024-02-14T07:05:57;10.80;99.90
2639;DHT22;1329;51.384;7.122;2024-02-14T07:08:24;10.80;99.90
2639;DHT22;1329;51.384;7.122;2024-02-14T07:10:54;10.90;99.90
2639;DHT22;1329;51.384;7.122;2024-02-14T07:13:25;10.80;99.90
2639;DHT22;1329;51.384;7.122;2024-02-14T07:15:54;10.80;99.90
2639;DHT22;1329;51.384;7.122;2024-02-14T07:18:22;10.90;99.90
2639;DHT22;1329;51.384;7.122;2024-02-14T07:20:49;10.90;99.90
2639;DHT22;1329;51.384;7.122;2024-02-14T07:23:18;10.90;99.90
2639;DHT22;1329;51.384;7.122;2024-02-14T07:25:46;10.90;99.90
2639;DHT22;1329;51.384;7.122;2024-02-14T07:28:13;10.90;99.90
2639;DHT22;1329;51.384;7.122;2024-02-14T07:30:41;11.00;99.90
2639;DHT22;1329;51.384;7.122;2024-02-14T07:33:10;11.00;99.90
2639;DHT22;1329;51.384;7.122;2024-02-14T07:35:38;11.00;99.90
2639;DHT22;1329;51.384;7.122;2024-02-14T07:38:06;11.00;99.90
2639;DHT22;1329;51.384;7.122;2024-02-14T07:40:33;11.00;99.90
2639;DHT22;1329;51.384;7.122;2024-02-14T07:43:01;11.00;99.90
2639;DHT22;1329;51.384;7.122;2024-02-14T07:45:29;11.10;99.90
2639;DHT22;1329;51.384;7.122;2024-02-14T07:47:56;11.10;99.90
2639;DHT22;1329;51.384;7.122;2024-02-14T07:50:25;11.10;99.90
2639;DHT22;1329;51.384;7.122;2024-02-14T07:52:54;11.10;99.90
2639;DHT22;1329;51.384;7.122;2024-02-14T07:55:21;11.10;99.90
2639;DHT22;1329;51.384;7.122;2024-02-14T07:57:49;11.10;99.90
2639;DHT22;1329;51.384;7.122;2024-02-14T08:00:18;11.10;99.90
2639;DHT22;1329;51.384;7.122;2024-02-14T08:02:48;11.10;99.90
2639;DHT22;1329;51.384;7.122;2024-02-14T08:05:16;11.10;99.90
2639;DHT22;1329;51.384;7.122;2024-02-14T08:07:46;11.10;99.90
2639;DHT22;1329;51.384;7.122;2024-02-14T08:10:13;11.10;99.90
2639;DHT22;1329;51.384;7.122;2024-02-14T08:12:41;11.20;99.90
2639;DHT22;1329;51.384;7.122;2024-02-14T08:15:09;11.20;99.90
2639;DHT22;1329;51.384;7.122;2024-02-14T08:17:37;11.20;99.90
2639;DHT22;1329;51.384;7.122;2024-02-14T08:20:06;11.20;99.90
2639;DHT22;1329;51.384;7.122;2024-02-14T08:22:34;11.20;99.90
2639;DHT22;1329;51.384;7.122;2024-02-14T08:25:03;11.20;99.90
2639;DHT22;1329;51.384;7.122;2024-02-14T08:27:31;11.20;99.90
2639;DHT22;1329;51.384;7.122;2024-02-14T08:29:59;11.30;99.90
2639;DHT22;1329;51.384;7.122;2024-02-14T08:32:26;11.30;99.90
2639;DHT22;1329;51.384;7.122;2024-02-14T08:34:54;11.30;99.90
2639;DHT22;1329;51.384;7.122;2024-02-14T08:37:23;11.30;99.90
2639;DHT22;1329;51.384;7.122;2024-02-14T08:39:51;11.40;99.90
2639;DHT22;1329;51.384;7.122;2024-02-14T08:42:20;11.40;99.90
2639;DHT22;1329;51.384;7.122;2024-02-14T08:44:48;11.40;99.90
2639;DHT22;1329;51.384;7.122;2024-02-14T08:47:16;11.40;99.90
2639;DHT22;1329;51.384;7.122;2024-02-14T08:49:43;11.50;99.90
2639;DHT22;1329;51.384;7.122;2024-02-14T08:52:11;11.50;99.90
2639;DHT22;1329;51.384;7.122;2024-02-14T08:54:39;11.50;99.90
2639;DHT22;1329;51.384;7.122;2024-02-14T08:57:06;11.60;99.90
2639;DHT22;1329;51.384;7.122;2024-02-14T08:59:35;11.50;99.90
2639;DHT22;1329;51.384;7.122;2024-02-14T09:02:03;11.60;99.90
2639;DHT22;1329;51.384;7.122;2024-02-14T09:04:31;11.60;99.90
2639;DHT22;1329;51.384;7.122;2024-02-14T09:06:59;11.60;99.90
2639;DHT22;1329;51.384;7.122;2024-02-14T09:09:27;11.60;99.90
2639;DHT22;1329;51.384;7.122;2024-02-14T09:11:54;11.60;99.90
2639;DHT22;1329;51.384;7.122;2024-02-14T09:14:21;11.60;99.90
2639;DHT22;1329;51.384;7.122;2024-02-14T09:16:50;11.60;99.90
2639;DHT22;1329;51.384;7.122;2024-02-14T09:19:18;11.60;99.90
2639;DHT22;1329;51.384;7.122;2024-02-14T09:21:45;11.70;99.90
2639;DHT22;1329;51.384;7.122;2024-02-14T09:24:13;11.70;99.90
2639;DHT22;1329;51.384;7.122;2024-02-14T09:26:40;11.70;99.90
2639;DHT22;1329;51.384;7.122;2024-02-14T09:29:08;11.70;99.90
2639;DHT22;1329;51.384;7.122;2024-02-14T09:31:36;11.70;99.90
2639;DHT22;1329;51.384;7.122;2024-02-14T09:34:06;11.70;99.90
2639;DHT22;1329;51.384;7.122;2024-02-14T09:36:33;11.80;99.90
2639;DHT22;1329;51.384;7.122;2024-02-14T09:39:01;11.80;99.90
2639;DHT22;1329;51.384;7.122;2024-02-14T09:41:37;11.80;99.90
2639;DHT22;1329;51.384;7.122;2024-02-14T09:44:06;11.80;99.90
2639;DHT22;1329;51.384;7.122;2024-02-14T09:46:35;11.80;99.90
2639;DHT22;1329;51.384;7.122;2024-02-14T09:49:03;11.80;99.90
2639;DHT22;1329;51.384;7.122;2024-02-14T09:51:35;11.70;99.90
2639;DHT22;1329;51.384;7.122;2024-02-14T09:54:04;11.70;99.90
2639;DHT22;1329;51.384;7.122;2024-02-14T09:56:31;11.80;99.90
2639;DHT22;1329;51.384;7.122;2024-02-14T09:59:00;11.70;99.90
2639;DHT22;1329;51.384;7.122;2024-02-14T10:01:29;11.70;99.90
2639;DHT22;1329;51.384;7.122;2024-02-14T10:03:56;11.80;99.90
2639;DHT22;1329;51.384;7.122;2024-02-14T10:06:26;11.80;99.90
2639;DHT22;1329;51.384;7.122;2024-02-14T10:08:54;11.80;99.90
2639;DHT22;1329;51.384;7.122;2024-02-14T10:11:22;11.80;99.90
2639;DHT22;1329;51.384;7.122;2024-02-14T10:13:52;11.80;99.90
2639;DHT22;1329;51.384;7.122;2024-02-14T10:16:26;11.80;99.90
2639;DHT22;1329;51.384;7.122;2024-02-14T10:18:55;11.80;99.90
2639;DHT22;1329;51.384;7.122;2024-02-14T10:21:23;11.80;99.90
2639;DHT22;1329;51.384;7.122;2024-02-14T10:23:52;11.80;99.90
2639;DHT22;1329;51.384;7.122;2024-02-14T10:26:22;11.80;99.90
2639;DHT22;1329;51.384;7.122;2024-02-14T10:28:50;11.80;99.90
2639;DHT22;1329;51.384;7.122;2024-02-14T10:31:17;11.90;99.90
2639;DHT22;1329;51.384;7.122;2024-02-14T10:33:44;11.90;99.90
2639;DHT22;1329;51.384;7.122;2024-02-14T10:36:13;12.00;99.90
2639;DHT22;1329;51.384;7.122;2024-02-14T10:38:41;12.00;99.90
2639;DHT22;1329;51.384;7.122;2024-02-14T10:41:10;12.00;99.90
2639;DHT22;1329;51.384;7.122;2024-02-14T10:43:40;12.10;99.90
2639;DHT22;1329;51.384;7.122;2024-02-14T10:46:15;12.10;99.90
2639;DHT22;1329;51.384;7.122;2024-02-14T10:48:46;12.10;99.90
2639;DHT22;1329;51.384;7.122;2024-02-14T10:51:15;12.10;99.90
2639;DHT22;1329;51.384;7.122;2024-02-14T10:53:45;12.20;99.90
2639;DHT22;1329;51.384;7.122;2024-02-14T10:56:17;12.20;99.90
2639;DHT22;1329;51.384;7.122;2024-02-14T10:58:46;12.20;99.90
2639;DHT22;1329;51.384;7.122;2024-02-14T11:01:14;12.30;99.90
2639;DHT22;1329;51.384;7.122;2024-02-14T11:03:43;12.30;99.90
2639;DHT22;1329;51.384;7.122;2024-02-14T11:06:15;12.30;99.90
2639;DHT22;1329;51.384;7.122;2024-02-14T11:08:53;12.30;99.90
2639;DHT22;1329;51.384;7.122;2024-02-14T11:11:24;12.30;99.90
2639;DHT22;1329;51.384;7.122;2024-02-14T11:13:53;12.40;99.90
2639;DHT22;1329;51.384;7.122;2024-02-14T11:16:24;12.40;99.90
2639;DHT22;1329;51.384;7.122;2024-02-14T11:18:53;12.40;99.90
2639;DHT22;1329;51.384;7.122;2024-02-14T11:21:28;12.40;99.90
2639;DHT22;1329;51.384;7.122;2024-02-14T11:23:56;12.40;99.90
2639;DHT22;1329;51.384;7.122;2024-02-14T11:26:38;12.40;99.90
2639;DHT22;1329;51.384;7.122;2024-02-14T11:29:06;12.40;99.90
2639;DHT22;1329;51.384;7.122;2024-02-14T11:31:35;12.40;99.90
2639;DHT22;1329;51.384;7.122;2024-02-14T11:34:04;12.40;99.90
2639;DHT22;1329;51.384;7.122;2024-02-14T11:36:32;12.40;99.90
2639;DHT22;1329;51.384;7.122;2024-02-14T11:39:03;12.40;99.90
2639;DHT22;1329;51.384;7.122;2024-02-14T11:41:34;12.40;99.90
2639;DHT22;1329;51.384;7.122;2024-02-14T11:44:03;12.40;99.90
2639;DHT22;1329;51.384;7.122;2024-02-14T11:46:31;12.40;99.90
2639;DHT22;1329;51.384;7.122;2024-02-14T11:48:59;12.50;99.90
2639;DHT22;1329;51.384;7.122;2024-02-14T11:51:28;12.50;99.90
2639;DHT22;1329;51.384;7.122;2024-02-14T11:53:56;12.50;99.90
2639;DHT22;1329;51.384;7.122;2024-02-14T11:56:30;12.50;99.90
2639;DHT22;1329;51.384;7.122;2024-02-14T11:59:01;12.50;99.90
2639;DHT22;1329;51.384;7.122;2024-02-14T12:01:30;12.60;99.90
2639;DHT22;1329;51.384;7.122;2024-02-14T12:03:58;12.60;99.90
2639;DHT22;1329;51.384;7.122;2024-02-14T12:06:26;12.60;99.90
2639;DHT22;1329;51.384;7.122;2024-02-14T12:08:54;12.60;99.90
2639;DHT22;1329;51.384;7.122;2024-02-14T12:11:21;12.70;99.90
2639;DHT22;1329;51.384;7.122;2024-02-14T12:13:49;12.70;99.90
2639;DHT22;1329;51.384;7.122;2024-02-14T12:16:21;12.70;99.90
2639;DHT22;1329;51.384;7.122;2024-02-14T12:18:48;12.70;99.90
2639;DHT22;1329;51.384;7.122;2024-02-14T12:21:15;12.70;99.90
2639;DHT22;1329;51.384;7.122;2024-02-14T12:23:42;12.70;99.90
2639;DHT22;1329;51.384;7.122;2024-02-14T12:26:09;12.70;99.90
2639;DHT22;1329;51.384;7.122;2024-02-14T12:28:46;12.80;99.90
2639;DHT22;1329;51.384;7.122;2024-02-14T12:31:22;12.80;99.90
2639;DHT22;1329;51.384;7.122;2024-02-14T12:33:50;12.80;99.90
2639;DHT22;1329;51.384;7.122;2024-02-14T12:36:20;12.80;99.90
2639;DHT22;1329;51.384;7.122;2024-02-14T12:38:47;12.80;99.90
2639;DHT22;1329;51.384;7.122;2024-02-14T12:41:14;12.90;99.90
2639;DHT22;1329;51.384;7.122;2024-02-14T12:43:41;12.90;99.90
2639;DHT22;1329;51.384;7.122;2024-02-14T12:46:08;12.90;99.90
2639;DHT22;1329;51.384;7.122;2024-02-14T12:48:37;13.00;99.90
2639;DHT22;1329;51.384;7.122;2024-02-14T12:51:04;13.00;99.90
2639;DHT22;1329;51.384;7.122;2024-02-14T12:53:32;13.10;99.90
2639;DHT22;1329;51.384;7.122;2024-02-14T12:55:59;13.10;99.90
2639;DHT22;1329;51.384;7.122;2024-02-14T12:58:27;13.10;99.90
2639;DHT22;1329;51.384;7.122;2024-02-14T13:00:54;13.10;99.90
2639;DHT22;1329;51.384;7.122;2024-02-14T13:03:21;13.10;99.90
2639;DHT22;1329;51.384;7.122;2024-02-14T13:05:49;13.10;99.90
2639;DHT22;1329;51.384;7.122;2024-02-14T13:08:19;13.10;99.90
2639;DHT22;1329;51.384;7.122;2024-02-14T13:10:46;13.10;99.90
2639;DHT22;1329;51.384;7.122;2024-02-14T13:13:14;13.10;99.90
2639;DHT22;1329;51.384;7.122;2024-02-14T13:15:41;13.10;99.90
2639;DHT22;1329;51.384;7.122;2024-02-14T13:18:10;13.10;99.90
2639;DHT22;1329;51.384;7.122;2024-02-14T13:20:37;13.10;99.90
2639;DHT22;1329;51.384;7.122;2024-02-14T13:23:06;13.10;99.90
2639;DHT22;1329;51.384;7.122;2024-02-14T13:25:34;13.10;99.90
2639;DHT22;1329;51.384;7.122;2024-02-14T13:28:05;13.20;99.90
2639;DHT22;1329;51.384;7.122;2024-02-14T13:30:32;13.10;99.90
2639;DHT22;1329;51.384;7.122;2024-02-14T13:33:00;13.20;99.90
2639;DHT22;1329;51.384;7.122;2024-02-14T13:35:27;13.20;99.90
2639;DHT22;1329;51.384;7.122;2024-02-14T13:37:54;13.20;99.90
2639;DHT22;1329;51.384;7.122;2024-02-14T13:40:24;13.30;99.90
2639;DHT22;1329;51.384;7.122;2024-02-14T13:42:52;13.30;99.90
2639;DHT22;1329;51.384;7.122;2024-02-14T13:45:19;13.30;99.90
2639;DHT22;1329;51.384;7.122;2024-02-14T13:47:47;13.30;99.90
2639;DHT22;1329;51.384;7.122;2024-02-14T13:50:14;13.40;99.90
2639;DHT22;1329;51.384;7.122;2024-02-14T13:52:41;13.40;99.90
2639;DHT22;1329;51.384;7.122;2024-02-14T13:55:09;13.40;99.90
2639;DHT22;1329;51.384;7.122;2024-02-14T13:57:38;13.50;99.90
2639;DHT22;1329;51.384;7.122;2024-02-14T14:00:08;13.40;99.90
2639;DHT22;1329;51.384;7.122;2024-02-14T14:02:36;13.50;99.90
2639;DHT22;1329;51.384;7.122;2024-02-14T14:05:07;13.50;99.90
2639;DHT22;1329;51.384;7.122;2024-02-14T14:07:35;13.50;99.90
2639;DHT22;1329;51.384;7.122;2024-02-14T14:10:03;13.50;99.90
2639;DHT22;1329;51.384;7.122;2024-02-14T14:12:31;13.40;99.90
2639;DHT22;1329;51.384;7.122;2024-02-14T14:15:00;13.50;99.90
2639;DHT22;1329;51.384;7.122;2024-02-14T14:17:28;13.40;99.90
2639;DHT22;1329;51.384;7.122;2024-02-14T14:19:55;13.40;99.90
2639;DHT22;1329;51.384;7.122;2024-02-14T14:22:22;13.30;99.90
2639;DHT22;1329;51.384;7.122;2024-02-14T14:24:50;13.30;99.90
2639;DHT22;1329;51.384;7.122;2024-02-14T14:27:17;13.30;99.90
2639;DHT22;1329;51.384;7.122;2024-02-14T14:29:46;13.30;99.90
2639;DHT22;1329;51.384;7.122;2024-02-14T14:32:15;13.30;99.90
2639;DHT22;1329;51.384;7.122;2024-02-14T14:34:42;13.20;99.90
2639;DHT22;1329;51.384;7.122;2024-02-14T14:37:09;13.20;99.90
2639;DHT22;1329;51.384;7.122;2024-02-14T14:39:36;13.20;99.90
2639;DHT22;1329;51.384;7.122;2024-02-14T14:42:03;13.20;99.90
2639;DHT22;1329;51.384;7.122;2024-02-14T14:44:31;13.20;99.90
2639;DHT22;1329;51.384;7.122;2024-02-14T14:46:59;13.20;99.90
2639;DHT22;1329;51.384;7.122;2024-02-14T14:49:28;13.10;99.90
2639;DHT22;1329;51.384;7.122;2024-02-14T14:51:56;13.10;99.90
2639;DHT22;1329;51.384;7.122;2024-02-14T14:54:24;13.10;99.90
2639;DHT22;1329;51.384;7.122;2024-02-14T14:56:53;13.10;99.90
2639;DHT22;1329;51.384;7.122;2024-02-14T14:59:20;13.10;99.90
2639;DHT22;1329;51.384;7.122;2024-02-14T15:01:48;13.10;99.90
2639;DHT22;1329;51.384;7.122;2024-02-14T15:04:16;13.00;99.90
2639;DHT22;1329;51.384;7.122;2024-02-14T15:06:44;13.00;99.90
2639;DHT22;1329;51.384;7.122;2024-02-14T15:09:13;13.00;99.90
2639;DHT22;1329;51.384;7.122;2024-02-14T15:11:40;13.00;99.90
2639;DHT22;1329;51.384;7.122;2024-02-14T15:14:07;12.90;99.90
2639;DHT22;1329;51.384;7.122;2024-02-14T15:16:34;12.90;99.90
2639;DHT22;1329;51.384;7.122;2024-02-14T15:19:01;12.90;99.90
2639;DHT22;1329;51.384;7.122;2024-02-14T15:21:28;12.90;99.90
2639;DHT22;1329;51.384;7.122;2024-02-14T15:23:57;12.90;99.90
2639;DHT22;1329;51.384;7.122;2024-02-14T15:26:24;12.90;99.90
2639;DHT22;1329;51.384;7.122;2024-02-14T15:28:51;12.90;99.90
2639;DHT22;1329;51.384;7.122;2024-02-14T15:31:39;12.90;99.90
2639;DHT22;1329;51.384;7.122;2024-02-14T15:34:23;12.90;99.90
2639;DHT22;1329;51.384;7.122;2024-02-14T15:36:50;12.90;99.90
2639;DHT22;1329;51.384;7.122;2024-02-14T15:39:19;12.90;99.90
2639;DHT22;1329;51.384;7.122;2024-02-14T15:41:46;12.90;99.90
2639;DHT22;1329;51.384;7.122;2024-02-14T15:44:13;12.90;99.90
2639;DHT22;1329;51.384;7.122;2024-02-14T15:46:41;12.90;99.90
2639;DHT22;1329;51.384;7.122;2024-02-14T15:49:08;12.90;99.90
2639;DHT22;1329;51.384;7.122;2024-02-14T15:51:36;12.90;99.90
2639;DHT22;1329;51.384;7.122;2024-02-14T15:54:04;12.90;99.90
2639;DHT22;1329;51.384;7.122;2024-02-14T15:56:33;12.90;99.90
2639;DHT22;1329;51.384;7.122;2024-02-14T15:59:00;12.90;99.90
2639;DHT22;1329;51.384;7.122;2024-02-14T16:01:28;12.90;99.90
2639;DHT22;1329;51.384;7.122;2024-02-14T16:03:55;13.00;99.90
2639;DHT22;1329;51.384;7.122;2024-02-14T16:06:22;13.00;99.90
2639;DHT22;1329;51.384;7.122;2024-02-14T16:08:49;12.90;99.90
2639;DHT22;1329;51.384;7.122;2024-02-14T16:11:19;13.00;99.90
2639;DHT22;1329;51.384;7.122;2024-02-14T16:13:48;13.00;99.90
2639;DHT22;1329;51.384;7.122;2024-02-14T16:16:15;13.00;99.90
2639;DHT22;1329;51.384;7.122;2024-02-14T16:18:42;13.00;99.90